Forester — DIUT — position and weather

sailwx.info

Track history (hours):
 
Tides and Currents Weather Stations Pressure Air Temp Water Temp Dewpoint Dewpoint Depression Visibility Wind Speed Wind Dir Waves Ship Positions

Forester

Last reported at 2016-Jun-28 12:29 UTC. Time now 2016-Jun-28 15:19 UTC.
Position N 53°11' E 004°34'.

Length 100 m; draft 7.3 m.

Type: Ship. MMSI: 211233870.

Date/timePositionNaut miles runAvg speedWind from/ knotsBaromVisibWave heightAir tempDewpointWater temp
2016-Jun-28 12:29N 53°11' E 004°34'9 9.7
2016-Jun-28 11:33N 53°03' E 004°27'1111.1
2016-Jun-28 10:32N 52°53' E 004°18'1111.0
2016-Jun-28 09:32N 52°44' E 004°07'1111.0
2016-Jun-28 08:32N 52°37' E 003°55'1111.2
2016-Jun-28 07:32N 52°29' E 003°42'4310.4
2016-Jun-28 03:23N 51°57' E 002°54'7 9.0
2016-Jun-28 02:33N 51°51' E 002°46'9 8.7
2016-Jun-28 01:33N 51°44' E 002°37'9 8.7
2016-Jun-28 00:34N 51°38' E 002°29'9 9.0
2016-Jun-27 23:33N 51°31' E 002°19'9 9.5
2016-Jun-27 22:33N 51°23' E 002°11'1010.1
2016-Jun-27 21:33N 51°14' E 002°04'1010.3
2016-Jun-27 20:33N 51°08' E 001°50'1110.7
2016-Jun-27 19:33N 50°60' E 001°39'1211.4
2016-Jun-27 18:33N 50°50' E 001°28'4410.8
2016-Jun-27 14:28N 50°23' E 000°34'1112.3
2016-Jun-27 13:33N 50°20' E 000°17'1313.1
2016-Jun-27 12:34N 50°16' W 000°02'1312.5
2016-Jun-27 11:33N 50°12' W 000°21'1211.8
2016-Jun-27 10:33N 50°08' W 000°38'1110.9
2016-Jun-27 09:31N 50°05' W 000°55'9 9.6
2016-Jun-27 08:33N 50°02' W 001°09'77 9.5
2016-Jun-27 00:28N 49°42' W 003°04'8711.9
2016-Jun-26 17:07N 48°59' W 004°60'611.0
2016-Jun-26 16:33N 48°55' W 005°08'9 8.5
2016-Jun-26 15:32N 48°51' W 005°20'  
2016-Jun-24 01:33N 39°07' W 009°49'1110.7
2016-Jun-24 00:33N 38°56' W 009°49'1110.7
2016-Jun-23 23:33N 38°46' W 009°50'1010.4
2016-Jun-23 22:33N 38°35' W 009°48'1010.2
2016-Jun-23 21:33N 38°25' W 009°45'10 9.7
2016-Jun-23 20:32N 38°16' W 009°42'9 9.6
2016-Jun-23 19:33N 38°07' W 009°39'1010.4
2016-Jun-23 18:33N 37°56' W 009°36'1110.6
2016-Jun-23 17:33N 37°46' W 009°33'1110.9
2016-Jun-23 16:33N 37°36' W 009°29'2611.2
2016-Jun-23 14:15N 37°10' W 009°23'3210.4
2016-Jun-23 11:08N 36°44' W 008°60'911.4
2016-Jun-23 10:22N 36°41' W 008°50'1011.5
2016-Jun-23 09:32N 36°39' W 008°38'1111.4
2016-Jun-23 08:33N 36°36' W 008°25'1211.8
2016-Jun-23 07:33N 36°33' W 008°10'2411.8
2016-Jun-23 05:31N 36°26' W 007°42'1211.8
2016-Jun-23 04:29N 36°23' W 007°27'1211.8
2016-Jun-23 03:30N 36°20' W 007°13'8111.6
2016-Jun-22 20:33N 35°58' W 005°37'9 8.6
2016-Jun-22 19:33N 36°00' W 005°27'21510.7
2016-Jun-21 23:31N 37°08' W 001°13'1212.3
2016-Jun-21 22:33N 37°15' W 001°02'1211.7
2016-Jun-21 21:33N 37°23' W 000°50'1211.6
2016-Jun-21 20:33N 37°31' W 000°40'1110.9
2016-Jun-21 19:33N 37°40' W 000°32'1111.4
2016-Jun-21 18:33N 37°51' W 000°29'1111.2
2016-Jun-21 17:33N 38°02' W 000°26'4 0.1
2016-Jun-20 14:28N 38°06' W 000°24'1111.8
2016-Jun-20 13:33N 37°55' W 000°26'1212.4
2016-Jun-20 12:33N 37°43' W 000°29'1211.7
2016-Jun-20 11:32N 37°31' W 000°34'1211.5
2016-Jun-20 10:32N 37°26' W 000°47'3310.6
2016-Jun-20 07:27N 37°06' W 001°20'37 8.7
2016-Jun-20 03:15N 36°38' W 001°49'710.1
2016-Jun-20 02:33N 36°33' W 001°55'2110.6
2016-Jun-20 00:33N 36°22' W 002°18'1111.1
2016-Jun-19 23:33N 36°20' W 002°31'1110.8
2016-Jun-19 22:33N 36°18' W 002°45'1111.2
2016-Jun-19 21:33N 36°17' W 002°59'1411.3
2016-Jun-19 20:17N 36°15' W 003°16'1111.0
2016-Jun-19 19:16N 36°13' W 003°30'2011.0
2016-Jun-19 17:26N 36°09' W 003°54'6212.4
2016-Jun-19 12:26N 35°59' W 005°10'1112.9
2016-Jun-19 11:33N 35°57' W 005°24'14710.4
2016-Jun-18 21:31N 34°04' W 007°18'2210.6
2016-Jun-18 19:29N 33°46' W 007°32'  
Track history (hours):
 
Tides and Currents Weather Stations Pressure Air Temp Water Temp Dewpoint Dewpoint Depression Visibility Wind Speed Wind Dir Waves Ship Positions

Forester

Last reported at 2016-Jun-28 12:29 UTC. Time now 2016-Jun-28 15:19 UTC.
Position N 53°11' E 004°34'.

Length 100 m; draft 7.3 m.

Type: Ship. MMSI: 211233870.

Date/timePositionNaut miles runAvg speedWind from/ knotsBaromVisibWave heightAir tempDewpointWater temp
2016-Jun-28 12:29N 53°11' E 004°34'9 9.7
2016-Jun-28 11:33N 53°03' E 004°27'1111.1
2016-Jun-28 10:32N 52°53' E 004°18'1111.0
2016-Jun-28 09:32N 52°44' E 004°07'1111.0
2016-Jun-28 08:32N 52°37' E 003°55'1111.2
2016-Jun-28 07:32N 52°29' E 003°42'4310.4
2016-Jun-28 03:23N 51°57' E 002°54'7 9.0
2016-Jun-28 02:33N 51°51' E 002°46'9 8.7
2016-Jun-28 01:33N 51°44' E 002°37'9 8.7
2016-Jun-28 00:34N 51°38' E 002°29'9 9.0
2016-Jun-27 23:33N 51°31' E 002°19'9 9.5
2016-Jun-27 22:33N 51°23' E 002°11'1010.1
2016-Jun-27 21:33N 51°14' E 002°04'1010.3
2016-Jun-27 20:33N 51°08' E 001°50'1110.7
2016-Jun-27 19:33N 50°60' E 001°39'1211.4
2016-Jun-27 18:33N 50°50' E 001°28'4410.8
2016-Jun-27 14:28N 50°23' E 000°34'1112.3
2016-Jun-27 13:33N 50°20' E 000°17'1313.1
2016-Jun-27 12:34N 50°16' W 000°02'1312.5
2016-Jun-27 11:33N 50°12' W 000°21'1211.8
2016-Jun-27 10:33N 50°08' W 000°38'1110.9
2016-Jun-27 09:31N 50°05' W 000°55'9 9.6
2016-Jun-27 08:33N 50°02' W 001°09'77 9.5
2016-Jun-27 00:28N 49°42' W 003°04'8711.9
2016-Jun-26 17:07N 48°59' W 004°60'611.0
2016-Jun-26 16:33N 48°55' W 005°08'9 8.5
2016-Jun-26 15:32N 48°51' W 005°20'  
2016-Jun-24 01:33N 39°07' W 009°49'1110.7
2016-Jun-24 00:33N 38°56' W 009°49'1110.7
2016-Jun-23 23:33N 38°46' W 009°50'1010.4
2016-Jun-23 22:33N 38°35' W 009°48'1010.2
2016-Jun-23 21:33N 38°25' W 009°45'10 9.7
2016-Jun-23 20:32N 38°16' W 009°42'9 9.6
2016-Jun-23 19:33N 38°07' W 009°39'1010.4
2016-Jun-23 18:33N 37°56' W 009°36'1110.6
2016-Jun-23 17:33N 37°46' W 009°33'1110.9
2016-Jun-23 16:33N 37°36' W 009°29'2611.2
2016-Jun-23 14:15N 37°10' W 009°23'3210.4
2016-Jun-23 11:08N 36°44' W 008°60'911.4
2016-Jun-23 10:22N 36°41' W 008°50'1011.5
2016-Jun-23 09:32N 36°39' W 008°38'1111.4
2016-Jun-23 08:33N 36°36' W 008°25'1211.8
2016-Jun-23 07:33N 36°33' W 008°10'2411.8
2016-Jun-23 05:31N 36°26' W 007°42'1211.8
2016-Jun-23 04:29N 36°23' W 007°27'1211.8
2016-Jun-23 03:30N 36°20' W 007°13'8111.6
2016-Jun-22 20:33N 35°58' W 005°37'9 8.6
2016-Jun-22 19:33N 36°00' W 005°27'21510.7
2016-Jun-21 23:31N 37°08' W 001°13'1212.3
2016-Jun-21 22:33N 37°15' W 001°02'1211.7
2016-Jun-21 21:33N 37°23' W 000°50'1211.6
2016-Jun-21 20:33N 37°31' W 000°40'1110.9
2016-Jun-21 19:33N 37°40' W 000°32'1111.4
2016-Jun-21 18:33N 37°51' W 000°29'1111.2
2016-Jun-21 17:33N 38°02' W 000°26'4 0.1
2016-Jun-20 14:28N 38°06' W 000°24'1111.8
2016-Jun-20 13:33N 37°55' W 000°26'1212.4
2016-Jun-20 12:33N 37°43' W 000°29'1211.7
2016-Jun-20 11:32N 37°31' W 000°34'1211.5
2016-Jun-20 10:32N 37°26' W 000°47'3310.6
2016-Jun-20 07:27N 37°06' W 001°20'37 8.7
2016-Jun-20 03:15N 36°38' W 001°49'710.1
2016-Jun-20 02:33N 36°33' W 001°55'2110.6
2016-Jun-20 00:33N 36°22' W 002°18'1111.1
2016-Jun-19 23:33N 36°20' W 002°31'1110.8
2016-Jun-19 22:33N 36°18' W 002°45'1111.2
2016-Jun-19 21:33N 36°17' W 002°59'1411.3
2016-Jun-19 20:17N 36°15' W 003°16'1111.0
2016-Jun-19 19:16N 36°13' W 003°30'2011.0
2016-Jun-19 17:26N 36°09' W 003°54'6212.4
2016-Jun-19 12:26N 35°59' W 005°10'1112.9
2016-Jun-19 11:33N 35°57' W 005°24'14710.4
2016-Jun-18 21:31N 34°04' W 007°18'2210.6
2016-Jun-18 19:29N 33°46' W 007°32'  

Dump ship's entire track history